Airfield :
LOGIN :

Register | Disclaimer

   EN    FR    IT 

 










Legend :    VFR   Marginal VFR   IFR   Intensive IFR   Very Intensive IFR
Visi :
Ceiling :
>= 8 km
>= 3000ft
5 to 8 km
1000 to 3000 ft
1500m to 5 km
500 to 1000 ft
800 to 1500m
200 to 500 ft
< 800m
< 200 ft
Symbols :   Thunderstorms  Fog  Heavy snow  Heavy precipitations  Wind > 20 kt
SIGMETs :     Misc.  Thunderstorms  Icing  Turbulence  Mountain Waves  Volcanic Ashes






- Airport Elevation : 141 ft
- IATA code : SKS


EKSP - Srydstrup Vojens

CURRENT METAR :
  • 151020Z 10012KT 070V140 CAVOK 25/18 Q1005 NOSIG

EXPIRED METARs :
  • 150950Z 10011KT 080V140 CAVOK 26/18 Q1005 NOSIG RMK SCT150
  • 150920Z 10011KT 070V130 CAVOK 24/18 Q1005 NOSIG RMK FEW180
  • 150850Z 10009KT 060V130 9999 FEW012 SCT240 23/19 Q1006 NOSIG
  • 150820Z 10008KT 060V140 9999 SCT009 22/19 Q1005 NOSIG
  • 150750Z 10009KT 070V140 9999 BKN007 21/19 Q1005 BECMG SCT008

TAF TAF EKSP
Valid from the 15 at 09:00 until the 16 at 09:00 UTC


150835Z 1509/1609 09012KT 9999 FEW070 SCT150
TEMPO 1512/1514 11012G22KT SHRA SCT050CB
TEMPO 1514/1524 VRB10G22KT 7000 SHRA SCT050CB
PROB40 1514/1521 TSRA
BECMG 1600/1602 23008KT
TEMPO 1600/1606 3000 SHRA TSRA BKN008 SCT040CB



MET'MAP, your aeronautical weather chart ! - Copyright ORBIFLY December 2007 - Disclaimer

ORBIFLY MET'MAP TEAM :

Programming & Development : Alexandra Zaïnal
Original concept : Baudouin d'Aumeries
Technical & hardware support : Manuel Goepfert
Assistance : Marc-Olivier Méhu




SOURCES & CREDITS :

   NOAA